createdAt,value
2018-03-16T00:01:19.678Z,16.57
2018-03-16T00:03:46.369Z,16.93
2018-03-16T00:06:13.123Z,16.60
2018-03-16T00:08:39.821Z,17.13
2018-03-16T00:11:06.538Z,17.67
2018-03-16T00:13:33.254Z,16.57
2018-03-16T00:15:59.953Z,18.20
2018-03-16T00:18:26.689Z,17.83
2018-03-16T00:20:53.364Z,18.20
2018-03-16T00:23:20.081Z,18.17
2018-03-16T00:25:46.758Z,16.03
2018-03-16T00:28:13.473Z,17.40
2018-03-16T00:30:40.161Z,22.80
2018-03-16T00:33:06.889Z,34.77
2018-03-16T00:35:33.593Z,38.70
2018-03-16T00:38:00.321Z,25.63
2018-03-16T00:40:27.031Z,23.97
2018-03-16T00:42:53.721Z,19.10
2018-03-16T00:45:20.423Z,19.50
2018-03-16T00:47:47.150Z,19.27
2018-03-16T00:50:13.866Z,17.17
2018-03-16T00:52:40.633Z,17.47
2018-03-16T00:55:07.330Z,17.73
2018-03-16T00:57:34.055Z,18.07
2018-03-16T01:00:00.768Z,18.33
2018-03-16T01:02:27.458Z,18.30
2018-03-16T01:04:54.146Z,18.83
2018-03-16T01:07:20.901Z,18.87
2018-03-16T01:09:47.576Z,17.93
2018-03-16T01:12:14.336Z,19.13
2018-03-16T01:14:41.075Z,19.10
2018-03-16T01:17:07.756Z,19.23
2018-03-16T01:19:34.441Z,19.37
2018-03-16T01:22:01.149Z,18.97
2018-03-16T01:24:27.843Z,19.00
2018-03-16T01:26:54.540Z,18.73
2018-03-16T01:29:21.229Z,18.80
2018-03-16T01:31:47.937Z,19.33
2018-03-16T01:34:14.686Z,18.60
2018-03-16T01:36:41.374Z,17.37
2018-03-16T01:39:08.071Z,19.93
2018-03-16T01:41:34.760Z,20.47
2018-03-16T01:44:01.456Z,20.10
2018-03-16T01:46:28.157Z,18.37
2018-03-16T01:48:54.861Z,18.87
2018-03-16T01:51:21.573Z,19.80
2018-03-16T01:53:48.324Z,19.00
2018-03-16T01:56:15.012Z,18.60
2018-03-16T01:58:41.801Z,18.13
2018-03-16T02:01:08.519Z,19.53
2018-03-16T02:03:35.199Z,20.17
2018-03-16T02:06:01.914Z,19.10
2018-03-16T02:08:28.628Z,17.57
2018-03-16T02:10:55.329Z,20.70
2018-03-16T02:13:22.030Z,19.40
2018-03-16T02:15:48.738Z,20.40
2018-03-16T02:18:15.661Z,19.80
2018-03-16T02:20:42.373Z,20.70
2018-03-16T02:23:09.081Z,18.40
2018-03-16T02:25:35.774Z,21.00
2018-03-16T02:30:31.349Z,21.07
2018-03-16T02:32:58.110Z,20.83
2018-03-16T02:35:24.793Z,21.53
2018-03-16T02:37:51.565Z,22.27
2018-03-16T02:40:18.257Z,21.47
2018-03-16T02:42:44.944Z,22.33
2018-03-16T02:45:11.650Z,22.17
2018-03-16T02:47:38.349Z,22.80
2018-03-16T02:50:05.062Z,22.87
2018-03-16T02:52:31.749Z,23.60
2018-03-16T02:54:58.445Z,22.60
2018-03-16T02:57:25.206Z,22.87
2018-03-16T02:59:51.890Z,23.03
2018-03-16T03:02:18.586Z,23.10
2018-03-16T03:04:45.264Z,23.13
2018-03-16T03:07:11.984Z,22.93
2018-03-16T03:09:38.682Z,23.20
2018-03-16T03:12:05.381Z,21.83
2018-03-16T03:14:32.084Z,22.77
2018-03-16T03:16:58.805Z,22.87
2018-03-16T03:19:25.631Z,22.00
2018-03-16T03:21:52.300Z,23.27
2018-03-16T03:24:18.990Z,25.00
2018-03-16T03:26:45.690Z,24.07
2018-03-16T03:29:12.398Z,23.43
2018-03-16T03:31:39.102Z,26.23
2018-03-16T03:34:05.822Z,23.13
2018-03-16T03:36:32.513Z,23.43
2018-03-16T03:38:59.220Z,23.90
2018-03-16T03:41:25.942Z,23.67
2018-03-16T03:43:52.656Z,25.60
2018-03-16T03:46:19.357Z,25.27
2018-03-16T03:48:46.056Z,25.50
2018-03-16T03:51:12.826Z,24.83
2018-03-16T03:53:39.535Z,25.70
2018-03-16T03:56:06.213Z,25.80
2018-03-16T03:58:32.933Z,25.87
2018-03-16T04:00:59.629Z,25.70
2018-03-16T04:03:26.313Z,25.30
2018-03-16T04:05:53.214Z,27.17
2018-03-16T04:08:19.889Z,26.27
2018-03-16T04:10:46.652Z,27.10
2018-03-16T04:13:13.341Z,29.30
2018-03-16T04:15:40.036Z,28.67
2018-03-16T04:18:06.734Z,29.13
2018-03-16T04:20:33.423Z,26.80
2018-03-16T04:23:00.110Z,28.27
2018-03-16T04:25:26.889Z,29.13
2018-03-16T04:27:53.580Z,28.60
2018-03-16T04:30:20.334Z,27.87
2018-03-16T04:32:47.042Z,30.83
2018-03-16T04:35:13.807Z,30.07
2018-03-16T04:37:40.449Z,29.87
2018-03-16T04:40:07.131Z,30.60
2018-03-16T04:42:33.837Z,31.10
2018-03-16T04:45:00.513Z,29.53
2018-03-16T04:47:27.205Z,30.30
2018-03-16T04:49:54.082Z,28.80
2018-03-16T04:52:20.794Z,29.60
2018-03-16T04:54:47.489Z,30.67
2018-03-16T04:57:14.215Z,29.93
2018-03-16T04:59:40.900Z,29.30
2018-03-16T05:02:07.587Z,28.93
2018-03-16T05:04:34.364Z,30.40
2018-03-16T05:07:01.049Z,30.40
2018-03-16T05:09:27.761Z,31.03
2018-03-16T05:11:54.504Z,31.53
2018-03-16T05:14:21.200Z,32.37
2018-03-16T05:16:47.877Z,28.90
2018-03-16T05:19:14.569Z,33.73
2018-03-16T05:21:41.274Z,30.80
2018-03-16T05:24:07.949Z,29.47
2018-03-16T05:26:34.793Z,30.23
2018-03-16T05:29:01.489Z,31.93
2018-03-16T05:31:29.069Z,30.57
2018-03-16T05:33:55.749Z,30.53
2018-03-16T05:36:22.433Z,29.10
2018-03-16T05:38:49.141Z,34.20
2018-03-16T05:41:16.722Z,31.97
2018-03-16T05:43:43.511Z,31.40
2018-03-16T05:46:10.189Z,30.67
2018-03-16T05:48:37.708Z,32.17
2018-03-16T05:51:04.417Z,32.07
2018-03-16T05:53:31.122Z,30.60
2018-03-16T05:55:57.800Z,32.00
2018-03-16T05:58:24.506Z,31.80
2018-03-16T06:00:51.217Z,29.43
2018-03-16T06:03:18.699Z,32.70
2018-03-16T06:05:45.450Z,33.10
2018-03-16T06:08:12.144Z,33.40
2018-03-16T06:10:39.806Z,28.80
2018-03-16T06:13:07.527Z,29.63
2018-03-16T06:15:34.344Z,29.10
2018-03-16T06:18:01.026Z,30.23
2018-03-16T06:20:27.788Z,30.90
2018-03-16T06:22:54.458Z,31.50
2018-03-16T06:25:21.133Z,30.17
2018-03-16T06:27:47.906Z,31.53
2018-03-16T06:30:14.582Z,32.20
2018-03-16T06:32:41.340Z,30.13
2018-03-16T06:35:08.072Z,32.30
2018-03-16T06:37:34.780Z,31.73
2018-03-16T06:40:01.518Z,32.87
2018-03-16T06:42:28.232Z,30.80
2018-03-16T06:44:55.017Z,33.70
2018-03-16T06:47:21.629Z,33.20
2018-03-16T06:49:48.330Z,32.53
2018-03-16T06:52:15.069Z,34.53
2018-03-16T06:54:41.819Z,31.73
2018-03-16T06:57:08.502Z,37.97
2018-03-16T06:59:35.260Z,35.57
2018-03-16T07:02:01.984Z,35.83
2018-03-16T07:04:28.668Z,31.80
2018-03-16T07:06:55.391Z,34.63
2018-03-16T07:09:22.076Z,34.23
2018-03-16T07:11:48.882Z,35.10
2018-03-16T07:14:15.575Z,33.70
2018-03-16T07:16:42.346Z,33.27
2018-03-16T07:19:09.039Z,34.87
2018-03-16T07:21:35.906Z,34.30
2018-03-16T07:24:02.590Z,36.13
2018-03-16T07:26:29.268Z,34.67
2018-03-16T07:28:56.114Z,35.63
2018-03-16T07:31:22.776Z,36.53
2018-03-16T07:33:49.472Z,35.43
2018-03-16T07:36:16.185Z,36.87
2018-03-16T07:38:42.877Z,35.53
2018-03-16T07:41:09.605Z,36.80
2018-03-16T07:43:36.301Z,35.87
2018-03-16T07:46:03.001Z,38.00
2018-03-16T07:48:29.694Z,39.40
2018-03-16T07:50:56.437Z,38.40
2018-03-16T07:53:23.127Z,34.53
2018-03-16T07:55:50.038Z,32.60
2018-03-16T07:58:16.741Z,35.63
2018-03-16T08:00:43.442Z,35.10
2018-03-16T08:03:10.139Z,36.77
2018-03-16T08:05:36.840Z,37.60
2018-03-16T08:08:03.566Z,36.30
2018-03-16T08:10:30.291Z,35.90
2018-03-16T08:12:57.062Z,40.80
2018-03-16T08:15:23.775Z,37.70
2018-03-16T08:17:50.453Z,36.73
2018-03-16T08:20:17.186Z,36.20
2018-03-16T08:22:43.907Z,38.17
2018-03-16T08:25:10.590Z,36.27
2018-03-16T08:27:37.290Z,35.70
2018-03-16T08:30:03.981Z,41.13
2018-03-16T08:32:30.689Z,39.80
2018-03-16T08:34:57.392Z,37.00
2018-03-16T08:37:24.104Z,35.40
2018-03-16T08:39:50.806Z,36.20
2018-03-16T08:42:17.589Z,37.40
2018-03-16T08:44:44.276Z,38.83
2018-03-16T08:47:10.987Z,35.13
2018-03-16T08:49:37.676Z,36.80
2018-03-16T08:52:04.366Z,37.40
2018-03-16T08:54:31.123Z,38.37
2018-03-16T08:56:57.742Z,36.23
2018-03-16T08:59:24.442Z,38.50
2018-03-16T09:01:51.133Z,36.30
2018-03-16T09:04:17.830Z,38.83
2018-03-16T09:06:44.527Z,38.90
2018-03-16T09:09:11.365Z,37.77
2018-03-16T09:11:38.059Z,38.90
2018-03-16T09:14:04.748Z,36.90
2018-03-16T09:16:31.459Z,38.43
2018-03-16T09:18:58.141Z,38.20
2018-03-16T09:21:24.850Z,36.40
2018-03-16T09:23:51.534Z,37.20
2018-03-16T09:26:18.234Z,38.33
2018-03-16T09:28:45.147Z,37.93
2018-03-16T09:31:11.862Z,35.77
2018-03-16T09:33:38.557Z,35.47
2018-03-16T09:36:05.246Z,37.37
2018-03-16T09:38:31.952Z,37.13
2018-03-16T09:40:58.649Z,36.43
2018-03-16T09:43:25.336Z,36.80
2018-03-16T09:45:52.046Z,33.80
2018-03-16T09:48:18.738Z,35.30
2018-03-16T09:50:45.422Z,35.00
2018-03-16T09:53:18.024Z,32.90
2018-03-16T09:55:44.709Z,31.33
2018-03-16T09:58:11.406Z,32.17
2018-03-16T10:00:38.109Z,28.77
2018-03-16T10:03:04.800Z,30.47
2018-03-16T10:05:31.514Z,31.70
2018-03-16T10:07:58.194Z,33.13
2018-03-16T10:10:24.921Z,33.67
2018-03-16T10:12:51.596Z,31.73
2018-03-16T10:15:18.309Z,30.10
2018-03-16T10:17:45.056Z,29.50
2018-03-16T10:20:11.717Z,30.10
2018-03-16T10:22:38.429Z,29.07
2018-03-16T10:25:05.129Z,30.53
2018-03-16T10:27:31.821Z,31.17
2018-03-16T10:29:58.619Z,29.00
2018-03-16T10:32:25.314Z,29.43
2018-03-16T10:34:52.202Z,29.63
2018-03-16T10:37:18.894Z,29.20
2018-03-16T10:39:45.604Z,29.70
2018-03-16T10:42:12.297Z,28.50
2018-03-16T10:44:39.113Z,28.13
2018-03-16T10:47:05.902Z,29.37
2018-03-16T10:49:32.638Z,28.30
2018-03-16T10:51:59.361Z,30.33
2018-03-16T10:54:26.040Z,26.60
2018-03-16T10:56:52.744Z,28.27
2018-03-16T10:59:19.466Z,27.37
2018-03-16T11:01:52.002Z,29.10
2018-03-16T11:04:18.709Z,30.50
2018-03-16T11:06:46.332Z,29.63
2018-03-16T11:09:13.085Z,29.03
2018-03-16T11:11:39.762Z,31.30
2018-03-16T11:14:06.585Z,29.07
2018-03-16T11:16:33.273Z,28.17
2018-03-16T11:19:00.025Z,27.53
2018-03-16T11:21:26.721Z,27.97
2018-03-16T11:23:53.421Z,27.07
2018-03-16T11:26:20.129Z,27.13
2018-03-16T11:28:46.834Z,27.70
2018-03-16T11:31:13.561Z,29.00
2018-03-16T11:33:40.239Z,27.90
2018-03-16T11:36:07.078Z,28.17
2018-03-16T11:38:33.786Z,25.10
2018-03-16T11:41:00.629Z,27.13
2018-03-16T11:43:27.366Z,25.60
2018-03-16T11:45:54.111Z,25.77
2018-03-16T11:48:20.815Z,22.27
2018-03-16T11:50:47.504Z,24.10
2018-03-16T11:53:14.209Z,21.53
2018-03-16T11:55:40.892Z,24.20
2018-03-16T11:58:07.573Z,23.10
2018-03-16T12:00:34.488Z,23.57
2018-03-16T12:03:01.177Z,23.57
2018-03-16T12:05:27.903Z,23.20
2018-03-16T12:07:54.601Z,22.97
2018-03-16T12:10:21.342Z,21.43
2018-03-16T12:12:48.068Z,23.50
2018-03-16T12:15:14.945Z,22.47
2018-03-16T12:17:41.650Z,23.10
2018-03-16T12:20:08.327Z,26.20
2018-03-16T12:22:35.049Z,25.83
2018-03-16T12:25:01.736Z,25.97
2018-03-16T12:27:28.464Z,28.00
2018-03-16T12:29:55.261Z,25.70
2018-03-16T12:32:21.959Z,26.70
2018-03-16T12:34:48.790Z,27.47
2018-03-16T12:37:15.474Z,25.07
2018-03-16T12:39:42.281Z,24.77
2018-03-16T12:42:08.986Z,26.73
2018-03-16T12:44:35.686Z,25.43
2018-03-16T12:47:02.408Z,25.50
2018-03-16T12:49:29.093Z,26.67
2018-03-16T12:51:55.817Z,26.40
2018-03-16T12:54:22.497Z,27.50
2018-03-16T12:56:49.338Z,28.00
2018-03-16T12:59:16.035Z,26.30
2018-03-16T13:01:42.829Z,26.00
2018-03-16T13:04:09.575Z,28.30
2018-03-16T13:06:36.289Z,23.97
2018-03-16T13:09:02.978Z,25.97
2018-03-16T13:11:29.694Z,23.50
2018-03-16T13:13:56.794Z,24.20
2018-03-16T13:16:23.465Z,26.50
2018-03-16T13:18:50.317Z,25.07
2018-03-16T13:21:17.009Z,25.70
2018-03-16T13:23:43.743Z,26.97
2018-03-16T13:26:10.469Z,25.70
2018-03-16T13:28:37.283Z,25.03
2018-03-16T13:31:03.992Z,25.90
2018-03-16T13:33:30.809Z,23.77
2018-03-16T13:35:57.505Z,24.17
2018-03-16T13:38:24.261Z,26.20
2018-03-16T13:40:50.969Z,24.03
2018-03-16T13:43:17.682Z,24.87
2018-03-16T13:45:44.398Z,23.60
2018-03-16T13:48:11.089Z,22.90
2018-03-16T13:50:37.795Z,20.80
2018-03-16T13:53:04.723Z,21.10
2018-03-16T13:55:31.425Z,21.93
2018-03-16T13:57:58.148Z,22.53
2018-03-16T14:00:24.845Z,22.20
2018-03-16T14:02:51.630Z,21.67
2018-03-16T14:05:18.309Z,21.83
2018-03-16T14:07:45.171Z,24.33
2018-03-16T14:10:11.896Z,23.97
2018-03-16T14:12:38.628Z,23.73
2018-03-16T14:15:05.386Z,22.97
2018-03-16T14:17:32.110Z,21.83
2018-03-16T14:19:58.887Z,23.10
2018-03-16T14:22:25.703Z,23.20
2018-03-16T14:24:52.398Z,23.73
2018-03-16T14:27:19.129Z,24.00
2018-03-16T14:29:45.814Z,22.57
2018-03-16T14:32:12.529Z,23.80
2018-03-16T14:34:39.222Z,23.00
2018-03-16T14:37:05.965Z,23.10
2018-03-16T14:39:32.700Z,22.37
2018-03-16T14:41:59.520Z,21.20
2018-03-16T14:44:26.203Z,19.10
2018-03-16T14:46:53.037Z,18.77
2018-03-16T14:49:19.789Z,17.80
2018-03-16T14:51:46.490Z,20.23
2018-03-16T14:54:13.177Z,20.27
2018-03-16T14:56:39.890Z,21.03
2018-03-16T14:59:06.625Z,22.63
2018-03-16T15:01:33.339Z,25.30
2018-03-16T15:04:00.050Z,22.63
2018-03-16T15:06:26.750Z,24.80
2018-03-16T15:08:53.461Z,20.20
2018-03-16T15:11:20.157Z,23.13
2018-03-16T15:13:46.938Z,24.60
2018-03-16T15:16:13.590Z,21.30
2018-03-16T15:18:40.293Z,23.47
2018-03-16T15:21:07.048Z,22.23
2018-03-16T15:23:33.767Z,20.97
2018-03-16T15:26:00.486Z,20.03
2018-03-16T15:28:27.196Z,21.90
2018-03-16T15:30:53.910Z,21.13
2018-03-16T15:33:20.599Z,20.00
2018-03-16T15:35:47.330Z,19.53
2018-03-16T15:38:14.125Z,18.20
2018-03-16T15:40:40.970Z,17.40
2018-03-16T15:43:07.835Z,14.97
2018-03-16T15:45:34.535Z,16.80
2018-03-16T15:48:01.268Z,16.50
2018-03-16T15:50:27.948Z,17.63
2018-03-16T15:52:54.733Z,17.87
2018-03-16T15:55:21.434Z,19.90
2018-03-16T15:57:48.240Z,20.33
2018-03-16T16:00:14.946Z,19.30
2018-03-16T16:02:41.654Z,20.97
2018-03-16T16:05:08.378Z,22.70
2018-03-16T16:07:35.065Z,22.50
2018-03-16T16:10:02.373Z,22.60
2018-03-16T16:12:29.103Z,22.10
2018-03-16T16:14:55.793Z,20.90
2018-03-16T16:17:22.587Z,21.17
2018-03-16T16:19:49.279Z,21.63
2018-03-16T16:22:16.145Z,21.60
2018-03-16T16:24:43.029Z,21.90
2018-03-16T16:27:09.747Z,21.77
2018-03-16T16:29:36.451Z,23.37
2018-03-16T16:32:03.252Z,21.23
2018-03-16T16:34:30.000Z,22.17
2018-03-16T16:36:56.691Z,23.03
2018-03-16T16:39:23.403Z,24.57
2018-03-16T16:41:50.098Z,24.30
2018-03-16T16:44:16.815Z,24.83
2018-03-16T16:46:43.511Z,24.37
2018-03-16T16:49:10.241Z,24.20
2018-03-16T16:51:36.945Z,24.87
2018-03-16T16:54:03.647Z,22.97
2018-03-16T16:56:30.351Z,21.60
2018-03-16T16:58:57.050Z,23.10
2018-03-16T17:01:23.803Z,22.93
2018-03-16T17:03:50.543Z,23.30
2018-03-16T17:06:17.241Z,24.43
2018-03-16T17:08:43.962Z,26.27
2018-03-16T17:11:10.687Z,23.63
2018-03-16T17:13:37.387Z,26.70
2018-03-16T17:16:04.090Z,27.13
2018-03-16T17:18:30.782Z,24.50
2018-03-16T17:20:57.511Z,24.90
2018-03-16T17:23:24.232Z,27.27
2018-03-16T17:25:50.935Z,26.80
2018-03-16T17:28:17.633Z,28.70
2018-03-16T17:30:44.334Z,28.73
2018-03-16T17:33:11.161Z,28.20
2018-03-16T17:35:37.853Z,28.70
2018-03-16T17:38:04.567Z,28.00
2018-03-16T17:40:31.263Z,28.27
2018-03-16T17:42:57.965Z,27.37
2018-03-16T17:45:24.807Z,27.27
2018-03-16T17:47:51.559Z,28.07
2018-03-16T17:50:18.278Z,24.70
2018-03-16T17:52:45.072Z,27.30
2018-03-16T17:55:11.792Z,26.10
2018-03-16T17:57:38.541Z,24.47
2018-03-16T18:00:05.323Z,26.10
2018-03-16T18:02:32.037Z,25.20
2018-03-16T18:04:58.791Z,24.10
2018-03-16T18:07:25.517Z,19.83
2018-03-16T18:09:52.226Z,22.77
2018-03-16T18:12:18.944Z,22.80
2018-03-16T18:14:45.785Z,23.33
2018-03-16T18:17:12.475Z,23.10
2018-03-16T18:19:39.195Z,20.43
2018-03-16T18:22:05.908Z,22.23
2018-03-16T18:24:32.592Z,21.07
2018-03-16T18:26:59.337Z,21.87
2018-03-16T18:29:26.046Z,22.27
2018-03-16T18:31:52.762Z,18.03
2018-03-16T18:34:19.502Z,21.67
2018-03-16T18:36:46.198Z,20.87
2018-03-16T18:39:12.970Z,22.60
2018-03-16T18:41:39.645Z,22.27
2018-03-16T18:44:06.356Z,22.30
2018-03-16T18:46:33.039Z,23.13
2018-03-16T18:48:59.755Z,19.97
2018-03-16T18:51:26.475Z,18.53
2018-03-16T18:53:53.186Z,19.37
2018-03-16T18:56:19.909Z,21.77
2018-03-16T18:58:46.630Z,19.57
2018-03-16T19:01:13.357Z,21.10
2018-03-16T19:03:40.093Z,19.60
2018-03-16T19:06:06.826Z,22.40
2018-03-16T19:08:33.526Z,21.83
2018-03-16T19:11:00.258Z,20.67
2018-03-16T19:13:27.042Z,19.07
2018-03-16T19:15:53.857Z,19.83
2018-03-16T19:18:20.557Z,20.60
2018-03-16T19:20:47.266Z,19.53
2018-03-16T19:23:13.947Z,21.50
2018-03-16T19:25:40.843Z,20.50
2018-03-16T19:28:07.554Z,19.90
2018-03-16T19:30:34.258Z,18.93
2018-03-16T19:33:01.011Z,19.67
2018-03-16T19:35:27.730Z,18.42
2018-03-16T19:37:54.489Z,19.52
2018-03-16T19:40:21.218Z,18.73
2018-03-16T19:42:47.919Z,20.37
2018-03-16T19:45:14.797Z,19.57
2018-03-16T19:47:41.478Z,18.80
2018-03-16T19:50:08.312Z,18.50
2018-03-16T19:52:35.040Z,17.83
2018-03-16T19:55:01.770Z,18.63
2018-03-16T19:57:28.488Z,19.27
2018-03-16T19:59:55.172Z,16.87
2018-03-16T20:02:21.922Z,17.83
2018-03-16T20:04:48.616Z,17.00
2018-03-16T20:07:15.370Z,17.13
2018-03-16T20:09:42.085Z,17.35
2018-03-16T20:12:08.789Z,17.70
2018-03-16T20:14:35.526Z,17.33
2018-03-16T20:17:02.233Z,17.17
2018-03-16T20:19:29.087Z,15.77
2018-03-16T20:21:55.951Z,16.42
2018-03-16T20:24:22.849Z,16.40
2018-03-16T20:26:49.541Z,15.60
2018-03-16T20:29:16.307Z,16.15
2018-03-16T20:31:43.031Z,16.07
2018-03-16T20:34:09.759Z,16.62
2018-03-16T20:36:36.651Z,16.83
2018-03-16T20:39:03.355Z,17.70
2018-03-16T20:41:30.076Z,16.23
2018-03-16T20:43:57.132Z,14.85
2018-03-16T20:46:23.859Z,16.13
2018-03-16T20:48:50.564Z,17.20
2018-03-16T20:51:17.353Z,16.95
2018-03-16T20:53:44.132Z,17.25
2018-03-16T20:56:10.830Z,17.33
2018-03-16T20:58:37.834Z,16.15
2018-03-16T21:01:04.660Z,15.70
2018-03-16T21:03:31.551Z,14.47
2018-03-16T21:05:58.306Z,16.55
2018-03-16T21:08:25.074Z,15.50
2018-03-16T21:10:51.807Z,15.40
2018-03-16T21:13:18.630Z,15.93
2018-03-16T21:15:45.394Z,15.77
2018-03-16T21:18:12.075Z,14.33
2018-03-16T21:20:38.802Z,15.90
2018-03-16T21:23:05.494Z,16.12
2018-03-16T21:25:32.212Z,14.80
2018-03-16T21:27:58.908Z,18.20
2018-03-16T21:30:25.621Z,15.30
2018-03-16T21:32:52.323Z,16.00
2018-03-16T21:35:19.141Z,15.82
2018-03-16T21:37:45.874Z,16.20
2018-03-16T21:40:12.571Z,17.77
2018-03-16T21:42:39.312Z,17.30
2018-03-16T21:45:05.999Z,16.27
2018-03-16T21:47:32.707Z,14.93
2018-03-16T21:49:59.436Z,15.23
2018-03-16T21:52:26.158Z,17.73
2018-03-16T21:54:53.054Z,16.80
2018-03-16T21:57:19.738Z,17.23
2018-03-16T21:59:46.462Z,17.52
2018-03-16T22:02:13.198Z,19.70
2018-03-16T22:04:39.903Z,16.98
2018-03-16T22:07:06.629Z,18.60
2018-03-16T22:09:33.545Z,18.95
2018-03-16T22:12:00.263Z,16.90
2018-03-16T22:14:26.991Z,17.80
2018-03-16T22:16:53.731Z,18.15
2018-03-16T22:19:20.508Z,17.40
2018-03-16T22:21:47.247Z,17.40
2018-03-16T22:24:13.986Z,17.02
2018-03-16T22:26:40.681Z,17.48
2018-03-16T22:29:07.403Z,16.27
2018-03-16T22:31:34.140Z,17.00
2018-03-16T22:34:00.881Z,16.67
2018-03-16T22:36:27.570Z,15.45
2018-03-16T22:38:54.376Z,14.80
2018-03-16T22:41:21.150Z,16.17
2018-03-16T22:43:48.045Z,16.23
2018-03-16T22:46:14.748Z,16.47
2018-03-16T22:48:41.458Z,15.43
2018-03-16T22:51:08.185Z,18.10
2018-03-16T22:53:34.918Z,16.77
2018-03-16T22:56:01.615Z,15.90
2018-03-16T22:58:28.349Z,16.02
2018-03-16T23:00:55.084Z,16.87
2018-03-16T23:03:21.791Z,15.88
2018-03-16T23:05:48.481Z,16.57
2018-03-16T23:08:15.204Z,16.70
2018-03-16T23:10:41.888Z,16.70
2018-03-16T23:13:08.617Z,16.90
2018-03-16T23:15:35.317Z,16.40
2018-03-16T23:18:02.037Z,15.80
2018-03-16T23:20:28.750Z,17.17
2018-03-16T23:22:55.461Z,17.40
2018-03-16T23:25:22.158Z,16.27
2018-03-16T23:27:48.878Z,14.95
2018-03-16T23:30:15.590Z,15.32
2018-03-16T23:32:42.310Z,16.35
2018-03-16T23:35:09.009Z,17.20
2018-03-16T23:37:35.754Z,16.95
2018-03-16T23:40:02.449Z,15.45
2018-03-16T23:42:29.169Z,15.23
2018-03-16T23:44:55.876Z,16.80
2018-03-16T23:47:22.594Z,14.90
2018-03-16T23:49:49.334Z,16.00
2018-03-16T23:52:16.056Z,16.08
2018-03-16T23:54:42.742Z,15.52
2018-03-16T23:57:09.453Z,16.00
2018-03-16T23:59:36.159Z,15.25
